Time;durP1;ratioP1;P1;durP2;ratioP2;P2;SDS_P1;SDS_P2;PMS_P1;PMS_P2;Temp;Humidity;BMP_temperature;BMP_pressure;BME280_temperature;BME280_humidity;BME280_pressure;Samples;Min_cycle;Max_cycle;Signal;HPM_P1;HPM_P2
2022/02/25 00:01:35;;;;;;;2.80;1.17;;;;;;;;;;5030708;28;20033;-70
2022/02/25 00:04:01;;;;;;;4.73;1.20;;;;;;;;;;5029640;28;20049;-70
2022/02/25 00:06:27;;;;;;;4.97;1.50;;;;;;;;;;5032595;28;20029;-70
2022/02/25 00:08:52;;;;;;;6.57;1.30;;;;;;;;;;5036116;28;20052;-70
2022/02/25 00:11:17;;;;;;;9.97;2.13;;;;;;;;;;5036858;28;20057;-70
2022/02/25 00:13:42;;;;;;;6.23;1.70;;;;;;;;;;5034362;28;20090;-70
2022/02/25 00:16:08;;;;;;;2.77;1.47;;;;;;;;;;5030834;28;20043;-70
2022/02/25 00:18:33;;;;;;;4.30;1.57;;;;;;;;;;5028730;28;20722;-70
2022/02/25 00:20:58;;;;;;;4.43;1.43;;;;;;;;;;5026122;28;20039;-70
2022/02/25 00:23:23;;;;;;;3.70;1.73;;;;;;;;;;5035718;28;20096;-69
2022/02/25 00:25:49;;;;;;;3.23;1.37;;;;;;;;;;5036246;28;20435;-69
2022/02/25 00:28:14;;;;;;;1.97;0.90;;;;;;;;;;5028800;28;20029;-69
2022/02/25 00:30:39;;;;;;;7.63;1.57;;;;;;;;;;5036889;28;20149;-69
2022/02/25 00:33:04;;;;;;;6.80;1.70;;;;;;;;;;5030784;28;20661;-69
2022/02/25 00:35:30;;;;;;;4.87;1.60;;;;;;;;;;5030948;28;20098;-69
2022/02/25 00:37:55;;;;;;;4.20;1.30;;;;;;;;;;5025248;28;20025;-69
2022/02/25 00:40:21;;;;;;;4.27;1.53;;;;;;;;;;5026436;28;20017;-70
2022/02/25 00:42:46;;;;;;;6.10;1.50;;;;;;;;;;5034706;28;20192;-69
2022/02/25 00:45:12;;;;;;;4.20;1.27;;;;;;;;;;5037468;28;20511;-72
2022/02/25 00:47:37;;;;;;;6.30;1.03;;;;;;;;;;5036448;28;20385;-69
2022/02/25 00:50:03;;;;;;;3.70;1.50;;;;;;;;;;5030012;28;20025;-69
2022/02/25 00:52:28;;;;;;;2.17;1.10;;;;;;;;;;5035030;28;20028;-72
2022/02/25 00:54:53;;;;;;;6.80;1.20;;;;;;;;;;5036159;28;20040;-69
2022/02/25 00:57:19;;;;;;;3.57;1.30;;;;;;;;;;5026929;28;20316;-72
2022/02/25 00:59:44;;;;;;;2.47;1.07;;;;;;;;;;5036819;28;20192;-72
2022/02/25 01:02:09;;;;;;;11.30;1.83;;;;;;;;;;5035705;28;20072;-72
2022/02/25 01:04:34;;;;;;;2.13;1.00;;;;;;;;;;5031118;28;20140;-69
2022/02/25 01:07:00;;;;;;;8.00;1.63;;;;;;;;;;5035784;28;20037;-69
2022/02/25 01:09:25;;;;;;;3.37;1.00;;;;;;;;;;5036930;28;20108;-69
2022/02/25 01:11:51;;;;;;;3.80;1.30;;;;;;;;;;5035948;28;20147;-69
2022/02/25 01:14:16;;;;;;;4.13;1.30;;;;;;;;;;5027094;28;20021;-69
2022/02/25 01:16:41;;;;;;;4.23;1.60;;;;;;;;;;5027915;28;20277;-69
2022/02/25 01:19:06;;;;;;;4.60;1.33;;;;;;;;;;5030334;28;20032;-69
2022/02/25 01:21:32;;;;;;;3.80;1.40;;;;;;;;;;5031572;28;20029;-69
2022/02/25 01:23:57;;;;;;;3.50;1.20;;;;;;;;;;5036567;28;20029;-69
2022/02/25 01:26:22;;;;;;;5.33;2.20;;;;;;;;;;5031697;28;20397;-69
2022/02/25 01:28:48;;;;;;;6.17;1.47;;;;;;;;;;5031477;28;20172;-69
2022/02/25 01:31:13;;;;;;;5.53;1.27;;;;;;;;;;5037227;28;20021;-69
2022/02/25 01:33:38;;;;;;;5.27;1.77;;;;;;;;;;5031712;28;20032;-69
2022/02/25 01:36:04;;;;;;;3.23;1.87;;;;;;;;;;5027824;28;20029;-69
2022/02/25 01:38:29;;;;;;;5.23;1.63;;;;;;;;;;5041017;28;20044;-69
2022/02/25 01:40:58;;;;;;;6.97;1.77;;;;;;;;;;5038106;28;20603;-69
2022/02/25 01:43:24;;;;;;;4.57;1.77;;;;;;;;;;5041222;28;20056;-69
2022/02/25 01:45:49;;;;;;;5.23;1.53;;;;;;;;;;5036128;28;20056;-69
2022/02/25 01:48:14;;;;;;;3.40;1.00;;;;;;;;;;5033813;28;20462;-69
2022/02/25 01:50:39;;;;;;;4.07;1.73;;;;;;;;;;5035024;28;20213;-69
2022/02/25 01:53:06;;;;;;;1.93;1.00;;;;;;;;;;5029766;28;20021;-69
2022/02/25 01:55:32;;;;;;;2.47;1.20;;;;;;;;;;5037232;28;20517;-69
2022/02/25 01:57:58;;;;;;;6.30;1.90;;;;;;;;;;5032020;28;20469;-69
2022/02/25 02:00:25;;;;;;;3.33;1.10;;;;;;;;;;5035159;28;20115;-67
2022/02/25 02:02:50;;;;;;;4.63;1.17;;;;;;;;;;5042993;22;20053;-72
2022/02/25 02:05:16;;;;;;;8.23;1.40;;;;;;;;;;5047343;28;20617;-71
2022/02/25 02:07:41;;;;;;;3.47;1.10;;;;;;;;;;5048987;28;20039;-71
2022/02/25 02:10:07;;;;;;;4.47;1.83;;;;;;;;;;5048063;28;20106;-71
2022/02/25 02:12:32;;;;;;;3.40;1.37;;;;;;;;;;5046841;28;20028;-72
2022/02/25 02:14:58;;;;;;;2.30;1.20;;;;;;;;;;5046435;28;20202;-71
2022/02/25 02:17:23;;;;;;;5.47;1.20;;;;;;;;;;5047175;28;20448;-71
2022/02/25 02:19:48;;;;;;;2.67;1.20;;;;;;;;;;5048478;28;20021;-71
2022/02/25 02:22:14;;;;;;;3.07;1.20;;;;;;;;;;5044191;28;20112;-72
2022/02/25 02:24:39;;;;;;;6.33;1.23;;;;;;;;;;5045871;28;20055;-71
2022/02/25 02:27:05;;;;;;;5.17;2.10;;;;;;;;;;5053369;28;20516;-73
2022/02/25 02:29:30;;;;;;;3.93;1.60;;;;;;;;;;5040353;28;20059;-73
2022/02/25 02:31:55;;;;;;;6.13;1.70;;;;;;;;;;5044996;28;20335;-73
2022/02/25 02:34:20;;;;;;;4.93;1.30;;;;;;;;;;5042994;28;20239;-73
2022/02/25 02:36:47;;;;;;;3.77;1.50;;;;;;;;;;5040660;28;20029;-74
2022/02/25 02:39:12;;;;;;;2.80;1.60;;;;;;;;;;5044318;28;20025;-74
2022/02/25 02:41:38;;;;;;;3.80;1.63;;;;;;;;;;5039867;28;20029;-73
2022/02/25 02:44:04;;;;;;;3.57;1.60;;;;;;;;;;5039433;28;20663;-73
2022/02/25 02:46:30;;;;;;;3.37;1.43;;;;;;;;;;5038761;28;20324;-73
2022/02/25 02:48:55;;;;;;;5.40;1.90;;;;;;;;;;5039633;28;20033;-73
2022/02/25 02:51:20;;;;;;;4.57;2.03;;;;;;;;;;5040061;28;20475;-72
2022/02/25 02:53:45;;;;;;;7.53;2.30;;;;;;;;;;5050711;28;20027;-72
2022/02/25 02:56:11;;;;;;;4.97;1.40;;;;;;;;;;5045130;28;20024;-71
2022/02/25 02:58:36;;;;;;;4.37;1.70;;;;;;;;;;5041651;28;20040;-71
2022/02/25 03:01:02;;;;;;;4.00;2.00;;;;;;;;;;5045619;28;20444;-71
2022/02/25 03:03:27;;;;;;;5.20;1.90;;;;;;;;;;5033952;28;20514;-72
2022/02/25 03:05:53;;;;;;;5.27;2.07;;;;;;;;;;5046128;28;20052;-72
2022/02/25 03:08:18;;;;;;;3.47;1.50;;;;;;;;;;5036210;28;20175;-71
2022/02/25 03:10:44;;;;;;;5.83;1.50;;;;;;;;;;5033192;28;20033;-72
2022/02/25 03:13:10;;;;;;;6.23;1.60;;;;;;;;;;5025987;28;20021;-71
2022/02/25 03:15:35;;;;;;;3.10;1.57;;;;;;;;;;5028184;28;20104;-72
2022/02/25 03:18:01;;;;;;;6.10;2.17;;;;;;;;;;5040172;28;20120;-71
2022/02/25 03:20:26;;;;;;;6.30;1.87;;;;;;;;;;5036946;28;21458;-73
2022/02/25 03:22:52;;;;;;;3.03;1.47;;;;;;;;;;5034673;28;20281;-74
2022/02/25 03:25:18;;;;;;;4.37;1.67;;;;;;;;;;5041584;28;20056;-74
2022/02/25 03:27:44;;;;;;;4.50;1.30;;;;;;;;;;5026555;28;20041;-74
2022/02/25 03:30:10;;;;;;;4.07;1.57;;;;;;;;;;5039389;28;20032;-73
2022/02/25 03:32:35;;;;;;;11.17;2.23;;;;;;;;;;5029708;28;20635;-74
2022/02/25 03:35:01;;;;;;;4.87;1.17;;;;;;;;;;5036889;28;20037;-73
2022/02/25 03:37:28;;;;;;;4.63;1.53;;;;;;;;;;5033587;28;20029;-74
2022/02/25 03:39:53;;;;;;;2.60;1.40;;;;;;;;;;5037919;28;20040;-71
2022/02/25 03:42:19;;;;;;;5.07;1.77;;;;;;;;;;5022459;28;20191;-72
2022/02/25 03:44:45;;;;;;;1.87;1.20;;;;;;;;;;5040214;28;20114;-73
2022/02/25 03:47:10;;;;;;;10.07;2.17;;;;;;;;;;5034223;28;20481;-71
2022/02/25 03:49:35;;;;;;;6.20;1.40;;;;;;;;;;5038674;28;20108;-71
2022/02/25 03:52:00;;;;;;;5.83;1.80;;;;;;;;;;5040042;28;20520;-72
2022/02/25 03:54:26;;;;;;;5.83;1.40;;;;;;;;;;5038648;28;20021;-72
2022/02/25 03:56:51;;;;;;;7.37;1.50;;;;;;;;;;5025759;28;20033;-72
2022/02/25 03:59:16;;;;;;;3.77;1.53;;;;;;;;;;5040456;28;20032;-73
2022/02/25 04:01:42;;;;;;;5.67;1.10;;;;;;;;;;5041376;28;20036;-72
2022/02/25 04:04:07;;;;;;;4.33;1.50;;;;;;;;;;5035364;28;20132;-72
2022/02/25 04:06:33;;;;;;;5.13;2.03;;;;;;;;;;5041665;28;20028;-72
2022/02/25 04:08:59;;;;;;;3.93;1.13;;;;;;;;;;5046207;28;21161;-72
2022/02/25 04:11:24;;;;;;;5.33;1.40;;;;;;;;;;5039300;28;20610;-72
2022/02/25 04:13:50;;;;;;;4.93;1.53;;;;;;;;;;5032294;28;20116;-72
2022/02/25 04:16:16;;;;;;;2.67;1.63;;;;;;;;;;5026337;28;20030;-72
2022/02/25 04:18:41;;;;;;;6.23;1.60;;;;;;;;;;5032861;28;20090;-71
2022/02/25 04:21:06;;;;;;;5.13;1.13;;;;;;;;;;5051606;28;20055;-71
2022/02/25 04:23:32;;;;;;;4.00;1.07;;;;;;;;;;5032365;28;20416;-72
2022/02/25 04:25:57;;;;;;;4.00;1.20;;;;;;;;;;5042667;28;20094;-71
2022/02/25 04:28:22;;;;;;;4.43;1.53;;;;;;;;;;5038736;28;20040;-72
2022/02/25 04:30:47;;;;;;;4.90;1.40;;;;;;;;;;5034097;28;20325;-72
2022/02/25 04:33:13;;;;;;;3.70;1.73;;;;;;;;;;5036334;28;20025;-72
2022/02/25 04:35:38;;;;;;;7.73;2.13;;;;;;;;;;5042055;28;20029;-72
2022/02/25 04:38:04;;;;;;;16.90;2.60;;;;;;;;;;5037741;28;20025;-72
2022/02/25 04:40:29;;;;;;;4.00;1.47;;;;;;;;;;5037310;28;20043;-72
2022/02/25 04:42:55;;;;;;;5.70;1.20;;;;;;;;;;5036478;28;20512;-72
2022/02/25 04:45:20;;;;;;;2.33;0.90;;;;;;;;;;5044481;28;20028;-72
2022/02/25 04:47:45;;;;;;;5.10;1.53;;;;;;;;;;5041711;28;20029;-72
2022/02/25 04:50:11;;;;;;;4.60;1.10;;;;;;;;;;5040906;28;20266;-72
2022/02/25 04:52:37;;;;;;;5.37;1.30;;;;;;;;;;5034598;28;20554;-71
2022/02/25 04:55:03;;;;;;;3.30;1.30;;;;;;;;;;5030309;28;20142;-71
2022/02/25 04:57:28;;;;;;;6.07;1.30;;;;;;;;;;5030819;28;20078;-72
2022/02/25 04:59:53;;;;;;;2.70;1.13;;;;;;;;;;5040866;28;20650;-72
2022/02/25 05:02:18;;;;;;;9.70;1.43;;;;;;;;;;5032300;28;20111;-72
2022/02/25 05:04:44;;;;;;;6.17;1.53;;;;;;;;;;5039041;28;20161;-72
2022/02/25 05:07:09;;;;;;;4.57;1.43;;;;;;;;;;5035920;28;20021;-72
2022/02/25 05:09:35;;;;;;;10.30;1.50;;;;;;;;;;5039543;28;20117;-72
2022/02/25 05:12:00;;;;;;;5.53;1.50;;;;;;;;;;5040081;28;20271;-72
2022/02/25 05:22:37;;;;;;;7.77;2.67;;;;;;;;;;5033181;28;20552;-72
2022/02/25 05:25:02;;;;;;;7.60;1.40;;;;;;;;;;5059369;28;20108;-72
2022/02/25 05:27:28;;;;;;;13.33;2.53;;;;;;;;;;5058642;28;20028;-72
2022/02/25 05:29:53;;;;;;;8.03;2.17;;;;;;;;;;5048963;28;20108;-72
2022/02/25 05:32:19;;;;;;;8.57;2.27;;;;;;;;;;5037996;28;20013;-72
2022/02/25 05:34:44;;;;;;;5.33;1.87;;;;;;;;;;5038333;28;20507;-72
2022/02/25 05:37:09;;;;;;;7.27;2.17;;;;;;;;;;5046568;28;20113;-72
2022/02/25 05:39:35;;;;;;;5.67;2.10;;;;;;;;;;5043351;28;20025;-72
2022/02/25 05:42:00;;;;;;;7.60;2.23;;;;;;;;;;5038386;28;20108;-72
2022/02/25 05:44:25;;;;;;;12.23;2.23;;;;;;;;;;5039622;28;20497;-71
2022/02/25 05:46:50;;;;;;;5.70;2.37;;;;;;;;;;5035459;28;20249;-72
2022/02/25 05:49:16;;;;;;;5.03;2.50;;;;;;;;;;5042421;28;20059;-72
2022/02/25 05:51:41;;;;;;;7.80;2.60;;;;;;;;;;5044904;28;20122;-72
2022/02/25 05:54:07;;;;;;;11.20;3.43;;;;;;;;;;5046796;28;20503;-72
2022/02/25 05:56:32;;;;;;;8.50;2.73;;;;;;;;;;5047477;28;20071;-72
2022/02/25 05:58:58;;;;;;;9.13;2.90;;;;;;;;;;5039645;28;20082;-73
2022/02/25 06:01:23;;;;;;;6.57;2.93;;;;;;;;;;5036212;28;20061;-72
2022/02/25 06:03:49;;;;;;;10.10;3.00;;;;;;;;;;5043574;28;20235;-72
2022/02/25 06:06:15;;;;;;;7.47;2.40;;;;;;;;;;5030328;28;20056;-72
2022/02/25 06:08:40;;;;;;;7.50;2.27;;;;;;;;;;5038556;28;20049;-72
2022/02/25 06:11:05;;;;;;;7.90;2.53;;;;;;;;;;5049149;28;20464;-72
2022/02/25 06:13:31;;;;;;;5.23;2.67;;;;;;;;;;5033589;28;20032;-72
2022/02/25 06:15:56;;;;;;;6.50;3.63;;;;;;;;;;5035495;28;20563;-73
2022/02/25 06:18:21;;;;;;;5.30;2.47;;;;;;;;;;5033205;28;20024;-73
2022/02/25 06:20:46;;;;;;;8.60;3.20;;;;;;;;;;5032624;28;20461;-72
2022/02/25 06:23:12;;;;;;;8.17;2.60;;;;;;;;;;5032301;28;20298;-73
2022/02/25 06:25:38;;;;;;;10.53;3.10;;;;;;;;;;5035194;28;20092;-73
2022/02/25 06:28:04;;;;;;;11.87;2.87;;;;;;;;;;5042341;28;20262;-72
2022/02/25 06:30:29;;;;;;;9.80;2.43;;;;;;;;;;5033550;28;20029;-72
2022/02/25 06:32:54;;;;;;;5.37;2.17;;;;;;;;;;5050317;28;20265;-71
2022/02/25 06:35:19;;;;;;;17.93;2.30;;;;;;;;;;5044383;28;20043;-72
2022/02/25 06:37:45;;;;;;;5.17;2.00;;;;;;;;;;5044549;28;20388;-72
2022/02/25 06:40:10;;;;;;;6.70;2.70;;;;;;;;;;5049254;28;20028;-72
2022/02/25 06:42:36;;;;;;;7.40;2.90;;;;;;;;;;5056303;28;20114;-72
2022/02/25 06:45:02;;;;;;;5.70;2.73;;;;;;;;;;5047843;28;20036;-73
2022/02/25 06:47:28;;;;;;;8.07;2.63;;;;;;;;;;5043142;28;20192;-72
2022/02/25 06:49:53;;;;;;;6.30;2.60;;;;;;;;;;5047891;28;20023;-73
2022/02/25 06:52:18;;;;;;;11.27;4.37;;;;;;;;;;5045044;28;20094;-72
2022/02/25 06:54:43;;;;;;;7.60;2.90;;;;;;;;;;5043729;28;20384;-71
2022/02/25 06:57:09;;;;;;;9.37;2.30;;;;;;;;;;5037856;28;20117;-72
2022/02/25 06:59:34;;;;;;;4.77;2.00;;;;;;;;;;5041152;28;20223;-72
2022/02/25 07:02:00;;;;;;;11.57;2.33;;;;;;;;;;5043570;28;20048;-72
2022/02/25 07:04:25;;;;;;;19.20;2.73;;;;;;;;;;5042901;28;20108;-71
2022/02/25 07:06:51;;;;;;;6.57;2.43;;;;;;;;;;5043898;28;20406;-71
2022/02/25 07:09:17;;;;;;;8.90;2.00;;;;;;;;;;5041562;28;20027;-71
2022/02/25 07:11:42;;;;;;;7.30;2.10;;;;;;;;;;5043752;28;20013;-71
2022/02/25 07:14:07;;;;;;;7.67;2.33;;;;;;;;;;5043087;28;20033;-71
2022/02/25 07:16:32;;;;;;;18.00;3.63;;;;;;;;;;5043308;28;20547;-71
2022/02/25 07:18:58;;;;;;;12.23;2.70;;;;;;;;;;5043193;28;20031;-71
2022/02/25 07:21:23;;;;;;;5.37;2.33;;;;;;;;;;5035621;28;20029;-71
2022/02/25 07:23:48;;;;;;;8.93;2.30;;;;;;;;;;5038930;28;20055;-71
2022/02/25 07:26:13;;;;;;;6.73;2.20;;;;;;;;;;5043385;28;20036;-72
2022/02/25 07:28:39;;;;;;;11.57;3.23;;;;;;;;;;5043714;28;20052;-72
2022/02/25 07:31:04;;;;;;;9.03;2.50;;;;;;;;;;5042330;28;20037;-72
2022/02/25 07:33:30;;;;;;;6.87;2.13;;;;;;;;;;5043714;28;20017;-72
2022/02/25 07:35:56;;;;;;;6.43;2.23;;;;;;;;;;5042265;28;20112;-72
2022/02/25 07:38:21;;;;;;;8.43;2.63;;;;;;;;;;5043832;28;20487;-72
2022/02/25 07:40:46;;;;;;;8.37;2.70;;;;;;;;;;5041245;28;20021;-71
2022/02/25 07:43:18;;;;;;;9.17;3.37;;;;;;;;;;5040962;28;20255;-72
2022/02/25 07:45:44;;;;;;;11.03;2.77;;;;;;;;;;5043839;28;20017;-72
2022/02/25 07:48:10;;;;;;;5.73;2.50;;;;;;;;;;5037553;28;20037;-72
2022/02/25 07:50:36;;;;;;;8.97;2.57;;;;;;;;;;5044077;28;20393;-72
2022/02/25 07:53:02;;;;;;;9.13;2.97;;;;;;;;;;5043342;28;20021;-72
2022/02/25 07:55:28;;;;;;;12.33;2.70;;;;;;;;;;5037771;28;20023;-72
2022/02/25 07:57:53;;;;;;;10.53;2.33;;;;;;;;;;5042620;28;20029;-72
2022/02/25 08:00:18;;;;;;;19.43;2.63;;;;;;;;;;5043010;28;20024;-72
2022/02/25 08:02:44;;;;;;;6.57;2.67;;;;;;;;;;5038919;28;20053;-72
2022/02/25 08:05:09;;;;;;;5.20;2.33;;;;;;;;;;5041762;28;20041;-73
2022/02/25 08:07:34;;;;;;;6.00;2.57;;;;;;;;;;5029139;28;20083;-72
2022/02/25 08:10:00;;;;;;;8.93;2.20;;;;;;;;;;5043036;28;20032;-73
2022/02/25 08:12:26;;;;;;;14.67;3.37;;;;;;;;;;5042058;28;20473;-73
2022/02/25 08:14:53;;;;;;;9.20;2.87;;;;;;;;;;5039726;28;20014;-73
2022/02/25 08:17:21;;;;;;;7.73;3.03;;;;;;;;;;5035139;28;20028;-73
2022/02/25 08:19:47;;;;;;;7.00;2.90;;;;;;;;;;5039269;28;20027;-73
2022/02/25 08:22:12;;;;;;;5.83;2.20;;;;;;;;;;5043931;28;20124;-73
2022/02/25 08:24:37;;;;;;;6.27;2.00;;;;;;;;;;5042402;28;20021;-73
2022/02/25 08:27:04;;;;;;;4.63;2.37;;;;;;;;;;5043132;28;20036;-73
2022/02/25 08:29:29;;;;;;;8.20;2.90;;;;;;;;;;5041319;28;20446;-73
2022/02/25 08:31:54;;;;;;;8.93;2.50;;;;;;;;;;5043789;28;20110;-73
2022/02/25 08:34:20;;;;;;;7.47;2.43;;;;;;;;;;5042598;28;20495;-73
2022/02/25 08:36:45;;;;;;;3.50;1.80;;;;;;;;;;5043583;28;20080;-73
2022/02/25 08:39:10;;;;;;;7.53;3.47;;;;;;;;;;5037639;28;20009;-73
2022/02/25 08:41:36;;;;;;;7.50;2.00;;;;;;;;;;5041838;28;20025;-73
2022/02/25 08:44:01;;;;;;;9.23;4.03;;;;;;;;;;5034973;28;20439;-73
2022/02/25 08:46:29;;;;;;;5.80;2.57;;;;;;;;;;5043449;28;20479;-74
2022/02/25 08:48:54;;;;;;;8.70;2.60;;;;;;;;;;5042931;28;20009;-73
2022/02/25 08:51:19;;;;;;;6.67;2.53;;;;;;;;;;5043333;28;20242;-73
2022/02/25 08:53:45;;;;;;;5.10;2.00;;;;;;;;;;5043203;28;20021;-73
2022/02/25 08:56:11;;;;;;;8.23;2.43;;;;;;;;;;5043293;28;20500;-72
2022/02/25 08:58:36;;;;;;;11.07;2.80;;;;;;;;;;5043338;28;20117;-73
2022/02/25 09:01:01;;;;;;;12.47;3.30;;;;;;;;;;5043836;28;20052;-73
2022/02/25 09:03:27;;;;;;;5.70;2.63;;;;;;;;;;5042910;28;20084;-73
2022/02/25 09:05:52;;;;;;;7.90;2.70;;;;;;;;;;5043240;28;20032;-73
2022/02/25 09:08:17;;;;;;;9.60;2.90;;;;;;;;;;5043384;28;20032;-73
2022/02/25 09:10:45;;;;;;;12.53;3.20;;;;;;;;;;5049272;28;20021;-72
2022/02/25 09:13:10;;;;;;;9.53;3.17;;;;;;;;;;5043160;28;20401;-73
2022/02/25 09:15:36;;;;;;;7.97;2.67;;;;;;;;;;5042666;28;20204;-73
2022/02/25 09:18:04;;;;;;;10.70;3.23;;;;;;;;;;5042693;28;20044;-72
2022/02/25 09:20:29;;;;;;;7.80;2.27;;;;;;;;;;5042251;28;20035;-73
2022/02/25 09:22:54;;;;;;;8.53;2.87;;;;;;;;;;5042697;28;20040;-73
2022/02/25 09:25:20;;;;;;;12.87;3.07;;;;;;;;;;5042068;28;20083;-73
2022/02/25 09:27:45;;;;;;;8.03;3.00;;;;;;;;;;5028739;28;20095;-73
2022/02/25 09:30:13;;;;;;;9.87;2.77;;;;;;;;;;5042801;28;20021;-72
2022/02/25 09:32:40;;;;;;;6.90;2.37;;;;;;;;;;5041774;28;20435;-72
2022/02/25 09:35:06;;;;;;;10.27;2.50;;;;;;;;;;5041671;28;20410;-72
2022/02/25 09:37:34;;;;;;;11.20;3.47;;;;;;;;;;5041996;28;20033;-72
2022/02/25 09:40:01;;;;;;;7.07;3.03;;;;;;;;;;5042586;28;20166;-72
2022/02/25 09:42:26;;;;;;;8.33;2.63;;;;;;;;;;5038270;28;20254;-72
2022/02/25 09:44:51;;;;;;;5.20;2.50;;;;;;;;;;5041784;28;20025;-72
2022/02/25 09:47:16;;;;;;;7.13;2.30;;;;;;;;;;5042129;28;20269;-72
2022/02/25 09:49:42;;;;;;;6.20;2.47;;;;;;;;;;5041707;28;20092;-72
2022/02/25 09:52:13;;;;;;;8.00;3.27;;;;;;;;;;5041915;28;20032;-72
2022/02/25 09:54:39;;;;;;;7.85;2.70;;;;;;;;;;5035436;28;20021;-73
2022/02/25 09:57:04;;;;;;;7.07;2.50;;;;;;;;;;5043231;28;20123;-75
2022/02/25 09:59:29;;;;;;;8.87;2.63;;;;;;;;;;5044698;28;20104;-75
2022/02/25 10:02:02;;;;;;;5.53;2.10;;;;;;;;;;5028578;28;20056;-74
2022/02/25 10:04:27;;;;;;;6.83;2.43;;;;;;;;;;5032370;28;20382;-74
2022/02/25 10:06:52;;;;;;;2.83;1.70;;;;;;;;;;5043617;28;20300;-73
2022/02/25 10:09:36;;;;;;;10.10;2.67;;;;;;;;;;5047272;28;20087;-70
2022/02/25 10:12:04;;;;;;;6.50;2.37;;;;;;;;;;5032585;28;20401;-72
2022/02/25 10:14:30;;;;;;;12.30;3.33;;;;;;;;;;5041218;28;20021;-72
2022/02/25 10:17:08;;;;;;;8.00;2.60;;;;;;;;;;5037176;28;20021;-72
2022/02/25 10:19:33;;;;;;;9.23;2.77;;;;;;;;;;5043911;28;20381;-72
2022/02/25 10:22:18;;;;;;;8.73;2.80;;;;;;;;;;5044749;28;20025;-72
2022/02/25 10:25:06;;;;;;;9.63;3.03;;;;;;;;;;5043847;28;20308;-72
2022/02/25 10:27:33;;;;;;;9.03;2.33;;;;;;;;;;5043806;28;20104;-73
2022/02/25 10:29:58;;;;;;;4.43;2.20;;;;;;;;;;5033306;28;20480;-75
2022/02/25 10:32:43;;;;;;;7.60;2.20;;;;;;;;;;5043542;28;20090;-72
2022/02/25 10:35:19;;;;;;;5.63;2.67;;;;;;;;;;5035831;28;20102;-75
2022/02/25 10:37:54;;;;;;;8.40;2.90;;;;;;;;;;5039685;28;20029;-72
2022/02/25 10:40:20;;;;;;;10.50;2.23;;;;;;;;;;5044143;28;20036;-75
2022/02/25 10:42:45;;;;;;;9.00;2.80;;;;;;;;;;5035934;28;20146;-74
2022/02/25 10:45:10;;;;;;;8.23;2.20;;;;;;;;;;5044032;28;20081;-72
2022/02/25 10:47:36;;;;;;;9.43;2.50;;;;;;;;;;5044395;28;20017;-73
2022/02/25 10:50:08;;;;;;;5.70;1.57;;;;;;;;;;5043416;28;20031;-74
2022/02/25 10:52:42;;;;;;;6.97;2.43;;;;;;;;;;5045181;28;20059;-74
2022/02/25 10:55:12;;;;;;;8.37;2.20;;;;;;;;;;5028043;28;20021;-75
2022/02/25 10:57:39;;;;;;;5.40;1.77;;;;;;;;;;5043538;28;20072;-72
2022/02/25 11:00:07;;;;;;;8.37;1.57;;;;;;;;;;5039552;28;20086;-72
2022/02/25 11:02:34;;;;;;;8.50;2.10;;;;;;;;;;5044729;28;20040;-73
2022/02/25 11:05:07;;;;;;;6.67;1.30;;;;;;;;;;5042633;28;20021;-73
2022/02/25 11:07:34;;;;;;;2.70;1.03;;;;;;;;;;5033547;28;20025;-72
2022/02/25 11:10:00;;;;;;;7.90;1.60;;;;;;;;;;5051483;28;20040;-72
2022/02/25 11:12:25;;;;;;;2.13;1.17;;;;;;;;;;5044846;28;20025;-72
2022/02/25 11:14:52;;;;;;;11.87;1.50;;;;;;;;;;5041975;28;20025;-73
2022/02/25 11:17:18;;;;;;;9.73;1.40;;;;;;;;;;5042813;28;20029;-72
2022/02/25 11:19:46;;;;;;;9.23;1.83;;;;;;;;;;5043062;28;20088;-72
2022/02/25 11:22:12;;;;;;;6.07;1.47;;;;;;;;;;5043592;28;20431;-73
2022/02/25 11:24:38;;;;;;;5.17;1.43;;;;;;;;;;5043284;28;20100;-72
2022/02/25 11:27:04;;;;;;;3.60;1.10;;;;;;;;;;5028351;28;20117;-72
2022/02/25 11:29:31;;;;;;;6.97;1.70;;;;;;;;;;5039862;28;20259;-74
2022/02/25 11:32:00;;;;;;;6.23;1.57;;;;;;;;;;5043064;28;20099;-73
2022/02/25 11:34:25;;;;;;;7.83;1.27;;;;;;;;;;5043120;28;20368;-73
2022/02/25 11:36:52;;;;;;;4.43;1.20;;;;;;;;;;5037878;28;20025;-72
2022/02/25 11:39:18;;;;;;;12.43;2.73;;;;;;;;;;5041617;28;20063;-72
2022/02/25 11:41:53;;;;;;;7.37;1.97;;;;;;;;;;5044012;28;20056;-72
2022/02/25 11:44:19;;;;;;;7.90;1.80;;;;;;;;;;5037198;28;20067;-72
2022/02/25 11:46:45;;;;;;;11.87;2.40;;;;;;;;;;5042017;28;20053;-71
2022/02/25 11:49:10;;;;;;;10.40;2.03;;;;;;;;;;5041181;28;20070;-71
2022/02/25 11:51:36;;;;;;;2.60;0.77;;;;;;;;;;5038321;28;20025;-71
2022/02/25 11:54:20;;;;;;;2.77;0.60;;;;;;;;;;5039450;28;20235;-70
2022/02/25 11:56:46;;;;;;;1.90;0.73;;;;;;;;;;5038703;28;20094;-71
2022/02/25 11:59:11;;;;;;;4.43;0.77;;;;;;;;;;5036835;28;20164;-71
2022/02/25 12:01:55;;;;;;;4.00;0.90;;;;;;;;;;5028556;28;20025;-71
2022/02/25 12:04:27;;;;;;;8.03;1.37;;;;;;;;;;5039503;28;20442;-70
2022/02/25 12:06:55;;;;;;;6.20;1.43;;;;;;;;;;5030253;28;20062;-72
2022/02/25 12:09:39;;;;;;;9.80;1.73;;;;;;;;;;5041222;28;20028;-71
2022/02/25 12:12:26;;;;;;;10.37;2.47;;;;;;;;;;5026693;28;20108;-71
2022/02/25 12:15:03;;;;;;;3.43;1.10;;;;;;;;;;5036396;28;20052;-72
2022/02/25 12:17:36;;;;;;;4.33;1.20;;;;;;;;;;5039224;28;20212;-71
2022/02/25 12:20:09;;;;;;;5.50;1.60;;;;;;;;;;5037957;28;20107;-72
2022/02/25 12:22:46;;;;;;;5.17;1.70;;;;;;;;;;5030654;28;20029;-71
2022/02/25 12:25:11;;;;;;;9.47;1.70;;;;;;;;;;5025139;28;20033;-71
2022/02/25 12:27:37;;;;;;;6.83;1.00;;;;;;;;;;5033503;28;20039;-72
2022/02/25 12:30:22;;;;;;;7.87;1.50;;;;;;;;;;5039244;28;20100;-71
2022/02/25 12:32:47;;;;;;;4.57;1.27;;;;;;;;;;5036678;28;20074;-72
2022/02/25 12:35:13;;;;;;;6.00;1.17;;;;;;;;;;5038009;28;20025;-71
2022/02/25 12:37:38;;;;;;;7.90;1.57;;;;;;;;;;5035904;28;20096;-71
2022/02/25 12:40:04;;;;;;;5.90;1.50;;;;;;;;;;5037016;28;20187;-71
2022/02/25 12:42:29;;;;;;;3.53;1.30;;;;;;;;;;5038653;28;20035;-71
2022/02/25 12:44:54;;;;;;;3.83;0.90;;;;;;;;;;5039149;28;20044;-71
2022/02/25 12:47:20;;;;;;;1.70;0.80;;;;;;;;;;5039142;28;20174;-72
2022/02/25 12:49:45;;;;;;;5.07;1.60;;;;;;;;;;5032041;28;20253;-72
2022/02/25 12:52:12;;;;;;;6.83;1.00;;;;;;;;;;5038969;28;20029;-72
2022/02/25 12:54:38;;;;;;;1.43;0.70;;;;;;;;;;5039127;28;20540;-72
2022/02/25 12:57:05;;;;;;;2.17;0.90;;;;;;;;;;5039075;28;20037;-73
2022/02/25 12:59:32;;;;;;;5.57;0.90;;;;;;;;;;5034993;28;20045;-72
2022/02/25 13:01:58;;;;;;;2.80;0.70;;;;;;;;;;5036078;28;20076;-72
2022/02/25 13:04:30;;;;;;;2.63;0.60;;;;;;;;;;5035372;28;20281;-72
2022/02/25 13:06:56;;;;;;;2.33;0.50;;;;;;;;;;5034877;28;20033;-72
2022/02/25 13:09:24;;;;;;;0.83;0.60;;;;;;;;;;5038449;28;20051;-72
2022/02/25 13:11:50;;;;;;;5.00;0.77;;;;;;;;;;5039969;28;20029;-72
2022/02/25 13:14:35;;;;;;;2.97;0.60;;;;;;;;;;5038683;28;20032;-72
2022/02/25 13:17:14;;;;;;;6.97;1.63;;;;;;;;;;5034275;28;20100;-72
2022/02/25 13:19:40;;;;;;;7.47;1.07;;;;;;;;;;5036862;28;20021;-71
2022/02/25 13:22:05;;;;;;;4.23;1.20;;;;;;;;;;5038372;28;20029;-71
2022/02/25 13:24:31;;;;;;;3.13;0.90;;;;;;;;;;5030956;28;20033;-72
2022/02/25 13:27:00;;;;;;;5.37;1.00;;;;;;;;;;5038863;28;20104;-72
2022/02/25 13:29:27;;;;;;;3.20;1.00;;;;;;;;;;5039093;28;20083;-72
2022/02/25 13:31:59;;;;;;;3.23;0.83;;;;;;;;;;5042705;28;20326;-72
2022/02/25 13:34:25;;;;;;;8.47;1.17;;;;;;;;;;5041620;28;20527;-71
2022/02/25 13:36:50;;;;;;;6.63;0.90;;;;;;;;;;5038185;28;20389;-72
2022/02/25 13:39:41;;;;;;;4.40;1.60;;;;;;;;;;5040873;28;20033;-72
2022/02/25 13:42:07;;;;;;;5.90;1.13;;;;;;;;;;5041023;28;20533;-71
2022/02/25 13:44:34;;;;;;;6.30;1.00;;;;;;;;;;5042148;28;20271;-72
2022/02/25 13:52:19;;;;;;;3.73;1.00;;;;;;;;;;5039131;28;20021;-72
2022/02/25 13:52:32;;;;;;;3.77;0.53;;;;;;;;;;5029537;28;20032;-73
2022/02/25 13:55:05;;;;;;;1.80;0.60;;;;;;;;;;5041644;28;20884;-73
2022/02/25 13:57:42;;;;;;;1.27;0.50;;;;;;;;;;5038175;28;20060;-71
2022/02/25 14:00:08;;;;;;;3.57;0.50;;;;;;;;;;5033718;28;20033;-71
2022/02/25 14:02:37;;;;;;;7.40;0.97;;;;;;;;;;5037458;28;20198;-71
2022/02/25 14:05:10;;;;;;;4.10;0.73;;;;;;;;;;5033454;28;20118;-71
2022/02/25 14:07:40;;;;;;;2.43;0.67;;;;;;;;;;5041275;28;20155;-70
2022/02/25 14:10:07;;;;;;;2.50;0.70;;;;;;;;;;5046367;28;20314;-70
2022/02/25 14:12:42;;;;;;;3.33;0.70;;;;;;;;;;5041143;28;20195;-70
2022/02/25 14:15:11;;;;;;;4.53;0.80;;;;;;;;;;5037692;28;20485;-71
2022/02/25 14:17:36;;;;;;;5.50;0.80;;;;;;;;;;5040806;28;20366;-71
2022/02/25 14:20:04;;;;;;;3.90;0.63;;;;;;;;;;5034976;28;20079;-71
2022/02/25 14:22:34;;;;;;;6.10;1.07;;;;;;;;;;5035281;28;20028;-70
2022/02/25 14:25:00;;;;;;;6.57;1.30;;;;;;;;;;5029134;28;20025;-71
2022/02/25 14:27:27;;;;;;;4.70;1.20;;;;;;;;;;5031180;28;20348;-71
2022/02/25 14:30:04;;;;;;;4.93;1.53;;;;;;;;;;5039003;28;20021;-71
2022/02/25 14:32:30;;;;;;;4.60;1.10;;;;;;;;;;5045507;28;20157;-70
2022/02/25 14:34:55;;;;;;;4.30;0.90;;;;;;;;;;5040589;28;20363;-71
2022/02/25 14:37:23;;;;;;;3.83;0.73;;;;;;;;;;5039761;28;20041;-70
2022/02/25 14:39:49;;;;;;;5.53;1.10;;;;;;;;;;5040843;28;20053;-71
2022/02/25 14:42:14;;;;;;;2.77;0.83;;;;;;;;;;5040161;28;20044;-71
2022/02/25 14:44:40;;;;;;;5.77;1.10;;;;;;;;;;5040615;28;20522;-70
2022/02/25 14:47:05;;;;;;;5.40;1.13;;;;;;;;;;5040294;28;20031;-71
2022/02/25 14:49:30;;;;;;;1.87;0.70;;;;;;;;;;5040624;28;20021;-71